Marble Bar, Australia
Current Conditions -  °F | °C
As of 10:00 PM on Thursday 30 Oct 2014 (Local Time) from YPPD Reporting Station
Clear Clear  
Wind Chill: 84°   Ceiling: Unl
Heat Index: 86°   Visibility: 6mi
Dew Point: 66°   Wind: 13mph
Humidity: 55%   Direction: 270°W
Pressure: 29.77"   Gusts: NA
Location:  21.17°S, 119.74°E
Report Text: YPPD 301400Z AUTO 27011KT 9999 // NCD 29/19 Q1008
Loading
Personal Weather Stations






























Interactive Weather Map
Tropical Storm Tracking
New forecast layout! Learn more

10-Day Weather Forecast

Advertisements
Track Severe Weather on mobile